Honnedaga Lake, New York
Current Conditions -  °F | °C
As of 7:53 AM on Friday 24 Oct 2014 (Local Time) from KRME Reporting Station
Overcast Overcast  
Wind Chill: 42°   Ceiling: 2300
Heat Index: 46°   Visibility: 10mi
Dew Point: 43°   Wind: 7mph
Humidity: 89%   Direction: 290°WNW
Pressure: 29.94"   Gusts: NA
Location:  43.501°N, 75.1602°W
Report Text: KRME 241153Z 29006KT 10SM OVC023 08/06 A2994 RMK AO2 SLP138 70006 T00780061 10089 20078 53007
Loading
Personal Weather Stations






























Interactive Weather Map
Tropical Storm Tracking
New forecast layout! Learn more

10-Day Weather Forecast

Advertisements
Track Severe Weather on mobile